Decoded Metar for LFBY (DAX in FRANCE) (IATA:N/A) | Meteo·Mobile Aviation Weather
aviador You're here:

LFBY Decoded Metar

DAX in FRANCE
Report Time2019-02-16 01:30:00
UTC Time2019-02-16 01:53:14
Flight Rules mvfr MVFR
WindCalm
Visibility7000 m
Phenomena:N/A
Clouds:N/A
Expected CloudBase > 400 ft AGL from Temp-Dew spread
CeilingNone
Temp03°C (ISA -12)
Dew Point02°C (93% RH)
AAT1.3°C
QNH1027 hPa
Density Alt-1,706 ft
Elevation105 ft
Report Wrong Elevation
Raw Report
METAR LFBY 160130Z AUTO 00000KT 7000 // ////// 03/02 Q1027=

Extra information for LFBY:More info

Metar Taf Metar & Taf Last 4 Metars F.Rules Stats Wind Profile Meteogram Temp Stats Airport Information Weather charts Add Link Nearby VenuesMetar ALERT Operation Metar Decoded Social comments